Terminal Aerodrome Forecast
Issued by NWS

Home | Current Version | Previous Version | Text Only | Print | Product List | Glossary On
Versions: 1 2 3 4 5 6 7 8 9 10 11 12 13 14 15 16 17 18 19 20 21 22
000
FTUS45 KABQ 172300
TAFROW
TAF
KROW 172329Z 1800/1824 36010KT P6SM VCTS BKN080CB
     FM180300 06005KT P6SM VCSH SCT025 BKN050
     FM181100 36005KT P6SM VCSH SCT015 OVC040
     FM182100 21010KT P6SM VCSH SCT015 OVC040=

USA.gov is the U.S. government's official web portal to all federal, state and local government web resources and services.